Time;durP1;ratioP1;P1;durP2;ratioP2;P2;SDS_P1;SDS_P2;PMS_P1;PMS_P2;Temp;Humidity;BMP_temperature;BMP_pressure;BME280_temperature;BME280_humidity;BME280_pressure;Samples;Min_cycle;Max_cycle;Signal;HPM_P1;HPM_P2
2021/12/07 00:03:34;;;;;;;4.65;2.22;;;;;;;1.88;99.95;98950.38;8200189;28;20039;-82
2021/12/07 00:07:35;;;;;;;5.45;2.95;;;;;;;1.85;100.00;98942.66;8218137;28;20054;-83
2021/12/07 00:11:37;;;;;;;4.63;2.28;;;;;;;1.74;100.00;98936.81;8241838;28;20038;-82
2021/12/07 00:15:38;;;;;;;8.67;2.97;;;;;;;1.68;100.00;98932.25;8216557;28;20083;-83
2021/12/07 00:19:39;;;;;;;6.55;2.55;;;;;;;1.66;100.00;98942.47;8203654;28;21042;-82
2021/12/07 00:23:40;;;;;;;5.03;2.33;;;;;;;1.66;100.00;98926.19;8211518;28;20039;-83
2021/12/07 00:27:40;;;;;;;7.38;2.88;;;;;;;1.67;100.00;98919.72;8234606;28;20086;-83
2021/12/07 00:31:51;;;;;;;7.43;3.00;;;;;;;1.72;100.00;98911.75;8217148;28;20447;-84
2021/12/07 00:35:52;;;;;;;5.82;3.08;;;;;;;1.70;100.00;98913.03;8217535;28;20054;-84
2021/12/07 00:39:54;;;;;;;5.95;3.05;;;;;;;1.66;100.00;98915.31;8212364;28;20441;-83
2021/12/07 00:43:56;;;;;;;5.55;3.13;;;;;;;1.74;100.00;98909.66;8242295;28;20049;-82
2021/12/07 00:47:56;;;;;;;4.50;2.58;;;;;;;1.64;100.00;98892.19;8216094;28;20089;-82
2021/12/07 00:51:57;;;;;;;5.68;3.00;;;;;;;1.67;100.00;98887.13;8224403;28;20098;-83
2021/12/07 00:56:00;;;;;;;5.10;2.95;;;;;;;1.70;100.00;98883.16;8247001;28;20047;-83
2021/12/07 01:00:04;;;;;;;5.55;2.55;;;;;;;1.60;100.00;98861.88;8222786;28;20046;-83
2021/12/07 01:04:06;;;;;;;5.63;2.72;;;;;;;1.59;100.00;98854.78;8228534;28;20115;-83
2021/12/07 01:25:05;;;;;;;7.60;3.97;;;;;;;1.39;100.00;98829.59;8209906;28;20054;-83
2021/12/07 01:29:05;;;;;;;8.93;5.10;;;;;;;1.46;100.00;98885.53;8229974;28;20645;-81
2021/12/07 01:37:32;;;;;;;7.53;4.03;;;;;;;1.23;100.00;98899.59;8207437;28;20039;-81
2021/12/07 01:50:19;;;;;;;12.23;6.45;;;;;;;1.21;100.00;98907.09;8211394;28;20046;-84
2021/12/07 02:03:01;;;;;;;12.18;6.45;;;;;;;1.34;100.00;98919.81;8237131;28;20043;-81
2021/12/07 02:07:02;;;;;;;16.45;7.68;;;;;;;1.46;100.00;98919.97;8206344;28;20049;-81
2021/12/07 02:11:04;;;;;;;9.80;4.83;;;;;;;1.61;100.00;98923.31;8206656;28;20070;-82
2021/12/07 02:15:05;;;;;;;12.88;7.03;;;;;;;1.65;100.00;98935.41;8237911;28;20031;-83
2021/12/07 02:19:06;;;;;;;10.57;6.38;;;;;;;1.52;100.00;98930.84;8215552;28;20065;-82
2021/12/07 02:23:07;;;;;;;10.35;5.95;;;;;;;1.58;100.00;98932.72;8242011;28;20042;-83
2021/12/07 02:27:08;;;;;;;9.32;5.45;;;;;;;1.63;100.00;98937.47;8239230;28;20049;-83
2021/12/07 02:31:09;;;;;;;9.88;6.45;;;;;;;1.70;100.00;98937.47;8215794;28;20050;-81
2021/12/07 02:35:13;;;;;;;10.53;6.53;;;;;;;1.77;100.00;98949.97;8228066;28;20078;-83
2021/12/07 02:39:14;;;;;;;11.98;5.93;;;;;;;1.86;100.00;98949.75;8216332;28;20042;-81
2021/12/07 02:43:16;;;;;;;11.37;6.40;;;;;;;1.85;100.00;98938.06;8254750;28;20043;-84
2021/12/07 02:47:17;;;;;;;9.20;5.82;;;;;;;1.96;100.00;98952.81;8246786;28;20039;-84
2021/12/07 02:51:18;;;;;;;10.57;4.85;;;;;;;1.97;100.00;98954.50;8243620;28;20062;-83
2021/12/07 02:55:19;;;;;;;9.75;5.45;;;;;;;2.02;100.00;98944.69;8222566;28;20507;-82
2021/12/07 02:59:21;;;;;;;8.35;4.97;;;;;;;2.07;100.00;98956.78;8218806;28;20081;-82
2021/12/07 03:03:22;;;;;;;10.18;4.68;;;;;;;2.09;100.00;98966.38;8209741;28;20508;-81
2021/12/07 03:07:41;;;;;;;7.78;3.63;;;;;;;2.25;100.00;98975.91;8189166;28;20047;-82
2021/12/07 03:29:05;;;;;;;9.13;4.70;;;;;;;2.34;100.00;98987.38;8217650;28;20038;-83
2021/12/07 03:33:07;;;;;;;8.70;4.38;;;;;;;2.36;100.00;98988.84;8209536;28;20073;-82
2021/12/07 03:37:08;;;;;;;12.45;4.68;;;;;;;2.39;100.00;98987.56;8217518;28;20106;-83
2021/12/07 03:41:09;;;;;;;9.55;4.38;;;;;;;2.52;100.00;98987.47;8221554;28;20175;-83
2021/12/07 03:45:11;;;;;;;9.20;4.30;;;;;;;2.53;100.00;99000.06;8209842;28;20142;-82
2021/12/07 03:54:35;;;;;;;9.48;4.45;;;;;;;2.58;100.00;99019.25;8224425;28;20057;-82
2021/12/07 03:58:37;;;;;;;8.25;3.70;;;;;;;2.57;100.00;99009.44;8225246;28;20038;-82
2021/12/07 04:02:40;;;;;;;8.20;4.45;;;;;;;2.54;100.00;99026.19;8231476;28;20055;-81
2021/12/07 04:06:42;;;;;;;7.75;3.67;;;;;;;2.48;100.00;99037.94;8228424;28;20411;-82
2021/12/07 04:10:43;;;;;;;6.50;3.35;;;;;;;2.53;100.00;99051.72;8212782;28;20042;-82
2021/12/07 04:14:43;;;;;;;7.82;3.88;;;;;;;2.51;100.00;99042.94;8206163;28;20046;-83
2021/12/07 04:18:44;;;;;;;7.15;3.55;;;;;;;2.46;100.00;99059.06;8199873;28;20447;-81
2021/12/07 04:22:47;;;;;;;6.85;3.55;;;;;;;2.46;100.00;99062.59;8177905;28;20067;-82
2021/12/07 04:26:47;;;;;;;6.30;3.28;;;;;;;2.39;100.00;99053.66;8216796;28;20105;-82
2021/12/07 04:30:47;;;;;;;7.70;3.20;;;;;;;2.43;100.00;99081.25;8236861;28;20050;-82
2021/12/07 04:34:48;;;;;;;7.63;3.72;;;;;;;2.47;100.00;99088.78;8188490;28;20058;-82
2021/12/07 04:38:48;;;;;;;5.68;3.17;;;;;;;2.53;100.00;99095.22;8223352;28;20054;-82
2021/12/07 04:42:49;;;;;;;6.45;3.60;;;;;;;2.48;100.00;99100.47;8220439;28;20053;-82
2021/12/07 04:47:10;;;;;;;7.05;3.38;;;;;;;2.44;100.00;99093.78;8219150;28;20093;-82
2021/12/07 04:59:48;;;;;;;4.70;2.67;;;;;;;2.58;100.00;99109.00;8212872;28;20125;-82
2021/12/07 05:03:50;;;;;;;6.30;2.50;;;;;;;2.61;100.00;99118.63;8219824;28;20051;-82
2021/12/07 05:07:54;;;;;;;6.30;2.28;;;;;;;2.68;100.00;99125.72;8225011;28;20478;-83
2021/12/07 05:12:22;;;;;;;4.30;2.33;;;;;;;2.63;100.00;99133.69;8194812;28;20554;-83
2021/12/07 05:25:32;;;;;;;7.60;3.33;;;;;;;2.57;100.00;99145.41;8205076;28;20050;-83
2021/12/07 05:38:06;;;;;;;4.43;2.10;;;;;;;2.70;100.00;99163.56;8215278;28;20408;-83
2021/12/07 05:42:07;;;;;;;5.70;1.73;;;;;;;2.73;100.00;99177.56;8207950;28;20051;-83
2021/12/07 05:46:07;;;;;;;4.10;1.85;;;;;;;2.71;100.00;99190.56;8207767;28;20316;-84
2021/12/07 05:50:11;;;;;;;2.53;1.65;;;;;;;2.71;100.00;99189.75;8220219;28;20559;-82
2021/12/07 05:54:12;;;;;;;5.03;2.08;;;;;;;2.77;100.00;99198.91;8194890;28;20047;-83
2021/12/07 05:58:12;;;;;;;6.10;2.60;;;;;;;2.72;100.00;99205.84;8218775;28;20558;-83
2021/12/07 06:02:13;;;;;;;5.05;1.65;;;;;;;2.76;100.00;99202.69;8220806;28;20101;-83
2021/12/07 06:06:14;;;;;;;3.03;1.67;;;;;;;2.83;100.00;99203.53;8207812;28;20046;-83
2021/12/07 06:10:14;;;;;;;7.43;2.15;;;;;;;2.86;100.00;99208.53;8207850;28;20066;-82
2021/12/07 06:14:20;;;;;;;4.30;1.63;;;;;;;2.79;100.00;99215.88;8218750;28;20059;-83
2021/12/07 06:18:22;;;;;;;6.93;1.90;;;;;;;2.72;100.00;99222.16;8226655;28;20051;-84
2021/12/07 06:22:26;;;;;;;4.57;1.80;;;;;;;2.72;100.00;99234.94;8207293;28;20515;-83
2021/12/07 06:26:27;;;;;;;6.18;2.33;;;;;;;2.76;100.00;99236.16;8226176;28;20476;-84
2021/12/07 06:30:28;;;;;;;3.80;2.33;;;;;;;2.74;100.00;99255.44;8231764;28;20047;-84
2021/12/07 06:34:31;;;;;;;7.10;1.77;;;;;;;2.78;100.00;99255.03;8230726;28;20457;-84
2021/12/07 06:38:33;;;;;;;5.88;1.98;;;;;;;2.75;100.00;99253.56;8223133;28;20420;-84
2021/12/07 06:42:36;;;;;;;8.02;2.30;;;;;;;2.74;100.00;99266.31;8216388;28;20712;-83
2021/12/07 06:46:36;;;;;;;7.35;2.20;;;;;;;2.72;100.00;99281.19;8209916;28;20113;-84
2021/12/07 06:50:37;;;;;;;3.28;1.63;;;;;;;2.69;100.00;99289.78;8216589;28;20038;-82
2021/12/07 06:54:37;;;;;;;6.70;2.70;;;;;;;2.68;100.00;99286.22;8213335;28;20107;-85
2021/12/07 06:58:38;;;;;;;4.00;1.80;;;;;;;2.58;100.00;99296.69;8224135;28;20097;-84
2021/12/07 07:02:39;;;;;;;4.22;1.95;;;;;;;2.54;100.00;99309.03;8223223;28;20077;-84
2021/12/07 07:06:40;;;;;;;5.05;2.10;;;;;;;2.54;100.00;99316.38;8220060;28;20046;-82
2021/12/07 07:10:40;;;;;;;4.30;2.22;;;;;;;2.54;100.00;99330.78;8219674;28;20046;-82
2021/12/07 07:14:41;;;;;;;6.53;2.00;;;;;;;2.56;100.00;99334.16;8211666;28;20035;-83
2021/12/07 07:18:42;;;;;;;8.77;2.30;;;;;;;2.67;100.00;99344.38;8192905;28;20051;-82
2021/12/07 07:22:42;;;;;;;3.90;1.70;;;;;;;2.71;100.00;99342.94;8215664;28;21806;-84
2021/12/07 07:26:43;;;;;;;4.28;1.83;;;;;;;2.75;100.00;99354.22;8197645;28;20520;-82
2021/12/07 07:30:43;;;;;;;7.30;2.15;;;;;;;2.70;100.00;99338.50;8208029;28;20054;-83
2021/12/07 07:34:44;;;;;;;4.97;1.95;;;;;;;2.65;100.00;99348.38;8221826;28;20738;-82
2021/12/07 07:38:45;;;;;;;5.97;2.05;;;;;;;2.67;100.00;99352.53;8220205;28;20042;-81
2021/12/07 07:42:45;;;;;;;4.93;2.13;;;;;;;2.64;100.00;99363.00;8228849;28;20174;-83
2021/12/07 07:47:10;;;;;;;5.97;2.17;;;;;;;2.57;100.00;99373.91;8206130;28;20050;-83
2021/12/07 07:51:11;;;;;;;7.10;2.00;;;;;;;2.59;100.00;99377.25;8200552;28;20050;-83
2021/12/07 07:55:12;;;;;;;5.10;2.22;;;;;;;2.66;100.00;99375.34;8223652;28;20050;-82
2021/12/07 07:59:13;;;;;;;6.47;2.63;;;;;;;2.80;100.00;99381.66;8219988;28;20090;-83
2021/12/07 08:03:13;;;;;;;8.13;2.13;;;;;;;2.97;100.00;99387.47;8204743;28;20058;-83
2021/12/07 08:07:15;;;;;;;4.25;1.80;;;;;;;3.17;100.00;99393.72;8205555;28;20050;-82
2021/12/07 08:11:15;;;;;;;12.60;2.88;;;;;;;3.22;99.50;99397.72;8203037;28;20054;-81
2021/12/07 08:15:18;;;;;;;7.88;2.30;;;;;;;3.28;99.77;99399.59;8218112;28;20118;-82
2021/12/07 08:19:21;;;;;;;8.15;2.95;;;;;;;3.42;99.62;99393.03;8206601;28;20057;-83
2021/12/07 08:23:23;;;;;;;12.32;2.35;;;;;;;3.57;98.13;99401.81;8197585;28;20043;-83
2021/12/07 08:27:24;;;;;;;6.65;1.85;;;;;;;3.63;96.57;99419.22;8210414;28;20039;-83
2021/12/07 08:31:26;;;;;;;7.22;1.98;;;;;;;3.68;96.39;99424.00;8225284;28;20053;-83
2021/12/07 08:35:27;;;;;;;3.13;1.20;;;;;;;3.64;95.63;99423.59;8222781;28;20449;-82
2021/12/07 08:39:28;;;;;;;4.30;1.88;;;;;;;3.52;95.89;99426.16;8205868;28;20051;-82
2021/12/07 08:43:32;;;;;;;6.28;2.08;;;;;;;3.42;96.37;99410.25;8204027;28;20039;-83
2021/12/07 08:47:34;;;;;;;6.55;2.20;;;;;;;3.27;97.51;99397.91;8225941;28;20100;-82
2021/12/07 08:51:38;;;;;;;7.78;2.75;;;;;;;3.27;97.67;99404.22;8210788;28;20047;-82
2021/12/07 09:00:06;;;;;;;8.93;3.30;;;;;;;3.59;97.71;99421.50;8215892;28;20042;-84
2021/12/07 09:04:07;;;;;;;10.18;2.58;;;;;;;3.99;96.18;99421.38;8233149;28;20043;-85
2021/12/07 09:08:07;;;;;;;14.93;2.63;;;;;;;4.29;94.62;99418.06;8210416;28;20057;-84
2021/12/07 09:12:08;;;;;;;7.95;3.03;;;;;;;4.48;93.13;99424.44;8224072;28;20122;-84
2021/12/07 09:16:10;;;;;;;9.10;2.60;;;;;;;4.49;92.53;99426.97;8230083;28;20050;-84
2021/12/07 09:20:15;;;;;;;11.13;3.13;;;;;;;4.48;92.41;99433.47;8232956;28;20054;-84
2021/12/07 09:24:18;;;;;;;8.70;2.58;;;;;;;4.48;91.44;99441.66;8225292;28;20073;-84
2021/12/07 09:28:22;;;;;;;11.50;3.22;;;;;;;4.47;92.35;99441.88;8224421;28;20070;-82
2021/12/07 09:32:23;;;;;;;8.80;2.85;;;;;;;4.46;91.15;99453.84;8221217;28;20035;-84
2021/12/07 09:36:24;;;;;;;9.65;2.30;;;;;;;4.48;92.29;99451.75;8230337;28;20054;-79
2021/12/07 09:40:28;;;;;;;7.70;2.67;;;;;;;4.47;91.05;99447.34;8234108;28;20046;-84
2021/12/07 09:44:29;;;;;;;16.17;2.58;;;;;;;4.48;91.91;99451.75;8233711;28;20055;-83
2021/12/07 09:48:30;;;;;;;7.10;2.13;;;;;;;4.48;90.76;99460.75;8228832;28;20035;-83
2021/12/07 09:52:30;;;;;;;6.20;2.28;;;;;;;4.42;91.49;99458.06;8200873;28;20031;-83
2021/12/07 09:56:31;;;;;;;8.65;3.05;;;;;;;4.49;91.33;99459.72;8208138;28;20054;-82
2021/12/07 10:00:33;;;;;;;12.18;2.92;;;;;;;4.50;92.27;99461.38;8229518;28;20047;-83
2021/12/07 10:04:34;;;;;;;10.80;2.40;;;;;;;4.53;92.22;99463.66;8200573;28;20040;-85
2021/12/07 10:08:35;;;;;;;10.00;1.92;;;;;;;4.47;91.35;99461.81;8196433;28;20094;-82
2021/12/07 10:12:36;;;;;;;6.90;2.20;;;;;;;4.44;92.15;99466.88;8230435;28;20154;-82
2021/12/07 10:16:44;;;;;;;11.68;2.60;;;;;;;4.59;91.34;99458.41;8219368;28;20127;-82
2021/12/07 10:21:16;;;;;;;9.32;2.72;;;;;;;4.69;90.59;99453.28;8225051;28;20557;-82
2021/12/07 10:25:27;;;;;;;5.70;2.20;;;;;;;4.87;90.57;99445.16;8222107;28;20412;-83
2021/12/07 10:29:28;;;;;;;9.63;2.00;;;;;;;4.98;89.59;99454.53;8214842;28;20539;-83
2021/12/07 10:33:37;;;;;;;10.00;2.40;;;;;;;5.22;89.15;99450.13;8229180;28;20038;-82
2021/12/07 10:37:38;;;;;;;11.07;4.47;;;;;;;5.32;88.53;99430.50;8211504;28;20042;-84
2021/12/07 10:41:43;;;;;;;5.77;2.10;;;;;;;5.49;88.22;99429.69;8220584;28;20058;-82
2021/12/07 10:45:44;;;;;;;8.88;2.10;;;;;;;5.59;87.67;99431.94;8228762;28;20047;-84
2021/12/07 10:49:50;;;;;;;7.53;2.53;;;;;;;5.55;85.92;99422.47;8215767;28;20050;-83
2021/12/07 10:53:53;;;;;;;6.85;1.95;;;;;;;5.65;86.57;99419.22;8228501;28;20041;-83
2021/12/07 10:57:55;;;;;;;7.72;1.70;;;;;;;5.70;86.11;99406.53;8224782;28;20050;-83
2021/12/07 11:01:56;;;;;;;7.43;2.67;;;;;;;5.74;84.55;99412.41;8219828;28;20043;-82
2021/12/07 11:05:57;;;;;;;8.60;2.22;;;;;;;5.75;84.53;99405.03;8200035;28;20047;-83
2021/12/07 11:10:07;;;;;;;6.72;2.30;;;;;;;5.98;83.87;99407.09;8207726;28;20053;-82
2021/12/07 11:14:07;;;;;;;9.90;2.25;;;;;;;6.22;84.23;99397.94;8209761;28;20054;-82
2021/12/07 11:18:12;;;;;;;10.13;2.00;;;;;;;6.32;81.83;99403.69;8198905;28;20039;-82
2021/12/07 11:22:14;;;;;;;;;;;;;;;6.55;80.55;99399.38;8211190;28;20043;-81
2021/12/07 11:30:21;;;;;;;5.57;1.40;;;;;;;6.90;79.35;99385.75;8206135;28;20416;-79
2021/12/07 11:34:26;;;;;;;3.88;1.50;;;;;;;6.68;78.96;99395.59;8220932;28;20393;-81
2021/12/07 11:38:29;;;;;;;4.10;1.60;;;;;;;6.50;78.71;99383.63;8217880;28;20079;-81
2021/12/07 11:42:37;;;;;;;8.35;1.60;;;;;;;6.64;78.42;99389.75;8224717;28;20126;-83
2021/12/07 11:46:48;;;;;;;6.60;1.52;;;;;;;6.93;75.65;99384.44;8200650;28;20042;-83
2021/12/07 11:50:50;;;;;;;7.68;2.13;;;;;;;6.77;73.05;99383.22;8225635;28;20043;-83
2021/12/07 11:54:52;;;;;;;;;;;;;;;6.28;70.43;99379.78;8216707;28;20038;-82
2021/12/07 11:58:54;;;;;;;5.30;1.13;;;;;;;5.94;71.85;99374.72;8226393;28;20473;-82
2021/12/07 12:02:54;;;;;;;4.47;1.80;;;;;;;5.78;73.63;99369.88;8210679;28;20113;-82
2021/12/07 12:06:58;;;;;;;7.00;1.75;;;;;;;5.75;73.45;99364.88;8202988;28;20046;-82
2021/12/07 12:11:04;;;;;;;5.10;1.15;;;;;;;6.16;72.46;99360.56;8225837;28;20067;-83
2021/12/07 12:15:23;;;;;;;12.70;1.63;;;;;;;6.52;68.26;99350.56;8220580;28;20038;-83
2021/12/07 12:19:39;;;;;;;6.20;1.60;;;;;;;7.09;66.46;99339.91;8214690;28;20047;-80
2021/12/07 12:24:06;;;;;;;8.85;1.70;;;;;;;7.44;63.61;99344.53;8214138;28;20035;-82
2021/12/07 12:28:07;;;;;;;7.18;1.65;;;;;;;7.28;64.14;99341.41;8221908;28;20075;-82
2021/12/07 12:32:08;;;;;;;6.18;2.00;;;;;;;7.35;66.61;99329.50;8209514;28;20054;-83
2021/12/07 12:36:08;;;;;;;8.77;1.85;;;;;;;7.13;65.90;99318.34;8227030;28;20043;-83
2021/12/07 12:40:17;;;;;;;7.20;1.27;;;;;;;6.75;68.10;99309.53;8231149;28;20625;-84
2021/12/07 12:44:25;;;;;;;5.40;1.88;;;;;;;6.47;69.15;99317.59;8229203;28;20119;-81
2021/12/07 12:48:29;;;;;;;7.10;2.13;;;;;;;6.40;69.97;99312.22;8213987;28;20059;-82
2021/12/07 12:52:39;;;;;;;4.40;1.70;;;;;;;6.30;68.95;99312.78;8233291;28;20035;-82
2021/12/07 12:56:39;;;;;;;5.47;1.73;;;;;;;6.31;69.27;99310.91;8231935;28;20043;-84
2021/12/07 13:01:09;;;;;;;5.97;1.80;;;;;;;6.18;68.02;99302.88;8238904;28;20046;-83
2021/12/07 13:05:15;;;;;;;6.10;1.95;;;;;;;6.19;69.08;99301.78;8220193;28;20070;-81
2021/12/07 13:09:18;;;;;;;7.55;1.95;;;;;;;6.28;68.99;99294.94;8221093;28;20050;-80
2021/12/07 13:13:31;;;;;;;5.90;1.60;;;;;;;6.26;69.44;99295.16;8232224;28;20081;-82
2021/12/07 13:17:43;;;;;;;9.80;2.25;;;;;;;6.32;69.77;99288.75;8207671;28;20047;-82
2021/12/07 13:21:45;;;;;;;8.07;2.17;;;;;;;6.33;70.53;99289.59;8237782;28;20053;-82
2021/12/07 13:25:48;;;;;;;5.13;2.05;;;;;;;6.16;70.42;99276.59;8222588;28;20055;-82
2021/12/07 13:29:52;;;;;;;12.43;1.90;;;;;;;5.96;70.37;99277.97;8239615;28;20047;-82
2021/12/07 13:33:57;;;;;;;9.52;2.05;;;;;;;5.84;71.44;99275.16;8200902;28;20042;-82
2021/12/07 13:37:57;;;;;;;8.27;2.30;;;;;;;5.66;72.49;99267.84;8218248;28;20129;-82
2021/12/07 13:42:04;;;;;;;9.80;2.08;;;;;;;5.53;72.63;99273.47;8225623;28;20115;-83
2021/12/07 13:46:07;;;;;;;7.57;1.63;;;;;;;5.52;72.88;99274.53;8229399;28;20734;-81
2021/12/07 13:50:12;;;;;;;6.57;2.78;;;;;;;5.72;72.67;99256.81;8233704;28;20396;-82
2021/12/07 13:54:19;;;;;;;8.73;1.95;;;;;;;5.78;71.75;99249.56;8216201;28;20126;-81
2021/12/07 13:58:21;;;;;;;6.07;1.70;;;;;;;5.77;71.84;99253.38;8223934;28;20694;-82
2021/12/07 14:02:23;;;;;;;5.95;1.58;;;;;;;5.78;72.23;99248.75;8226804;28;20051;-81
2021/12/07 14:06:25;;;;;;;8.82;2.45;;;;;;;5.72;71.88;99255.97;8228309;28;20449;-81
2021/12/07 14:10:30;;;;;;;6.38;2.45;;;;;;;5.71;72.19;99252.41;8219548;28;20409;-80
2021/12/07 14:14:30;;;;;;;6.82;2.40;;;;;;;5.84;72.87;99250.53;8231767;28;20093;-81
2021/12/07 14:18:35;;;;;;;7.82;2.33;;;;;;;5.80;72.41;99247.44;8223785;28;20038;-80
2021/12/07 14:22:37;;;;;;;6.65;2.40;;;;;;;5.74;72.77;99233.84;8220148;28;20057;-81
2021/12/07 14:26:38;;;;;;;9.57;1.88;;;;;;;5.50;73.15;99231.03;8231705;28;20043;-81
2021/12/07 14:30:39;;;;;;;5.55;1.88;;;;;;;5.25;73.95;99220.22;8227402;28;20051;-82
2021/12/07 14:34:42;;;;;;;7.65;1.98;;;;;;;5.12;75.35;99213.03;8213880;28;20127;-82
2021/12/07 14:38:46;;;;;;;9.40;2.10;;;;;;;4.97;76.12;99204.41;8206395;28;20057;-81
2021/12/07 14:42:47;;;;;;;2.72;1.40;;;;;;;4.83;77.04;99192.81;8222448;28;20042;-79
2021/12/07 14:46:49;;;;;;;5.70;1.40;;;;;;;4.73;78.06;99178.84;8221990;28;20050;-79
2021/12/07 14:50:49;;;;;;;5.90;1.85;;;;;;;4.63;78.86;99163.00;8228831;28;20496;-80
2021/12/07 14:54:51;;;;;;;6.28;2.38;;;;;;;4.46;78.97;99151.88;8228070;28;20043;-80
2021/12/07 14:58:55;;;;;;;6.87;1.87;;;;;;;4.23;79.63;99154.41;8227338;28;20041;-79
2021/12/07 15:02:55;;;;;;;6.03;1.70;;;;;;;4.04;80.76;99165.25;8222621;28;20163;-81
2021/12/07 15:07:03;;;;;;;11.48;4.03;;;;;;;3.94;81.81;99150.47;8204084;28;20054;-79
2021/12/07 15:11:04;;;;;;;8.77;1.60;;;;;;;3.91;81.57;99137.28;8231781;28;20073;-80
2021/12/07 15:15:07;;;;;;;7.13;1.60;;;;;;;3.88;82.08;99138.56;8215084;28;20053;-78
2021/12/07 15:19:08;;;;;;;5.82;1.55;;;;;;;3.73;82.10;99138.06;8229105;28;20051;-81
2021/12/07 15:23:08;;;;;;;7.18;1.75;;;;;;;3.59;82.75;99124.53;8214831;28;20070;-79
2021/12/07 15:27:09;;;;;;;5.63;1.45;;;;;;;3.47;83.03;99126.31;8222189;28;20066;-81
2021/12/07 15:31:09;;;;;;;6.88;1.70;;;;;;;3.33;83.44;99122.88;8228692;28;20069;-80
2021/12/07 15:35:19;;;;;;;6.43;1.60;;;;;;;3.26;84.33;99118.50;8189990;28;20039;-81
2021/12/07 15:39:24;;;;;;;4.53;1.80;;;;;;;3.16;84.35;99116.28;8206997;28;20158;-82
2021/12/07 15:43:25;;;;;;;7.45;1.63;;;;;;;3.06;84.44;99115.88;8219475;28;20031;-81
2021/12/07 15:47:40;;;;;;;5.50;1.63;;;;;;;2.95;85.41;99110.09;8213727;28;20043;-83
2021/12/07 15:51:50;;;;;;;4.40;1.50;;;;;;;2.85;85.20;99096.09;8196007;28;20039;-81
2021/12/07 15:55:50;;;;;;;8.15;1.73;;;;;;;2.79;85.49;99098.88;8211606;28;20031;-81
2021/12/07 15:59:59;;;;;;;5.53;1.65;;;;;;;2.82;85.75;99090.28;8212373;28;20522;-82
2021/12/07 16:03:59;;;;;;;8.82;2.30;;;;;;;2.89;85.39;99078.31;8213093;28;20531;-82
2021/12/07 16:08:08;;;;;;;3.30;1.60;;;;;;;2.96;85.81;99067.38;8222082;28;20047;-82
2021/12/07 16:12:14;;;;;;;6.97;2.53;;;;;;;3.04;86.46;99052.69;8195442;28;20039;-80
2021/12/07 16:16:24;;;;;;;7.50;2.63;;;;;;;3.09;85.43;99050.94;8229448;28;20047;-81
2021/12/07 16:20:25;;;;;;;14.93;2.17;;;;;;;3.11;85.77;99058.91;8220609;28;20042;-82
2021/12/07 16:24:27;;;;;;;5.82;1.95;;;;;;;3.17;85.68;99045.25;8223744;28;20039;-83
2021/12/07 16:28:27;;;;;;;5.18;1.65;;;;;;;3.22;85.82;99039.16;8216477;28;20039;-83
2021/12/07 16:32:29;;;;;;;5.82;1.85;;;;;;;3.20;86.32;99028.47;8225943;28;20508;-83
2021/12/07 16:36:30;;;;;;;10.13;4.55;;;;;;;3.10;85.95;99022.69;8223891;28;20225;-81
2021/12/07 16:40:31;;;;;;;16.90;4.05;;;;;;;3.01;86.48;99015.03;8227114;28;20038;-81
2021/12/07 16:44:33;;;;;;;6.68;1.83;;;;;;;2.97;86.45;98998.28;8220769;28;20492;-81
2021/12/07 16:48:34;;;;;;;8.48;3.28;;;;;;;2.95;86.79;99008.56;8235939;28;20050;-83
2021/12/07 16:52:35;;;;;;;11.70;2.30;;;;;;;2.87;86.68;98979.72;8223202;28;20305;-83
2021/12/07 16:56:36;;;;;;;5.65;1.83;;;;;;;2.74;87.28;98977.94;8227078;28;20070;-82
2021/12/07 17:00:38;;;;;;;5.68;1.90;;;;;;;2.63;87.52;98975.91;8243665;28;20112;-81
2021/12/07 17:04:39;;;;;;;4.85;1.50;;;;;;;2.50;87.81;98967.84;8243532;28;20049;-80
2021/12/07 17:08:40;;;;;;;8.73;3.10;;;;;;;2.42;88.37;98965.38;8228370;28;20476;-80
2021/12/07 17:12:41;;;;;;;5.32;1.83;;;;;;;2.36;89.03;98960.81;8210916;28;20046;-80
2021/12/07 17:16:41;;;;;;;11.50;2.23;;;;;;;2.39;89.19;98963.09;8217631;28;20049;-80
2021/12/07 17:20:44;;;;;;;10.18;2.80;;;;;;;2.49;89.08;98952.56;8228559;28;20286;-81
2021/12/07 17:24:45;;;;;;;8.75;2.20;;;;;;;2.58;90.02;98950.44;8233453;28;20051;-80
2021/12/07 17:28:45;;;;;;;11.25;2.67;;;;;;;2.70;89.03;98944.06;8226137;28;20610;-81
2021/12/07 17:32:46;;;;;;;6.03;1.65;;;;;;;2.82;88.22;98941.44;8227823;28;20046;-81
2021/12/07 17:36:47;;;;;;;7.35;2.00;;;;;;;2.83;88.57;98926.00;8202899;28;20484;-82
2021/12/07 17:40:48;;;;;;;7.70;1.67;;;;;;;2.80;88.24;98931.88;8225064;28;20050;-81
2021/12/07 17:44:49;;;;;;;13.02;2.00;;;;;;;2.76;88.09;98923.28;8215106;28;20042;-77
2021/12/07 17:48:50;;;;;;;4.82;1.65;;;;;;;2.66;88.33;98917.53;8208427;28;20070;-80
2021/12/07 17:52:51;;;;;;;5.80;1.75;;;;;;;2.56;88.64;98907.16;8226904;28;20054;-80
2021/12/07 17:56:52;;;;;;;5.82;1.83;;;;;;;2.46;89.53;98907.59;8232701;28;20093;-80
2021/12/07 18:00:53;;;;;;;7.60;1.73;;;;;;;2.41;89.58;98902.00;8209717;28;20046;-80
2021/12/07 18:04:53;;;;;;;6.68;1.88;;;;;;;2.37;89.22;98894.50;8219979;28;20294;-81
2021/12/07 18:08:54;;;;;;;14.20;1.92;;;;;;;2.32;89.57;98892.47;8218402;28;20444;-79
2021/12/07 18:12:58;;;;;;;8.85;2.45;;;;;;;2.32;89.73;98884.31;8223171;28;20047;-79
2021/12/07 18:16:59;;;;;;;5.88;1.60;;;;;;;2.32;90.16;98869.84;8198399;28;20051;-80
2021/12/07 18:20:59;;;;;;;7.78;2.00;;;;;;;2.39;89.41;98866.03;8208969;28;20069;-81
2021/12/07 18:25:00;;;;;;;8.07;1.80;;;;;;;2.41;89.39;98858.50;8216134;28;20087;-79
2021/12/07 18:29:00;;;;;;;8.20;2.10;;;;;;;2.41;89.69;98857.66;8225093;28;20625;-80
2021/12/07 18:33:06;;;;;;;13.43;4.93;;;;;;;2.40;89.86;98845.13;8222126;28;20049;-80
2021/12/07 18:37:08;;;;;;;6.88;2.53;;;;;;;2.42;89.99;98843.84;8214656;28;20052;-81
2021/12/07 18:41:15;;;;;;;6.53;1.80;;;;;;;2.44;90.17;98830.03;8222342;28;20047;-81
2021/12/07 18:45:18;;;;;;;9.93;2.03;;;;;;;2.45;89.71;98816.22;8203729;28;20097;-81
2021/12/07 18:49:20;;;;;;;7.38;2.17;;;;;;;2.49;90.38;98805.72;8224144;28;20043;-79
2021/12/07 18:53:20;;;;;;;9.25;1.80;;;;;;;2.52;89.50;98786.25;8236783;28;20051;-81
2021/12/07 18:57:20;;;;;;;6.10;1.90;;;;;;;2.51;90.52;98779.16;8217700;28;20055;-78
2021/12/07 19:01:22;;;;;;;10.88;2.33;;;;;;;2.52;89.88;98769.94;8193377;28;20047;-79
2021/12/07 19:05:24;;;;;;;9.95;2.60;;;;;;;2.57;89.69;98758.38;8208012;28;20099;-81
2021/12/07 19:09:24;;;;;;;6.80;2.47;;;;;;;2.58;89.75;98751.88;8219529;28;20075;-81
2021/12/07 19:13:26;;;;;;;12.88;4.43;;;;;;;2.57;89.74;98740.19;8215846;28;20399;-79
2021/12/07 19:17:26;;;;;;;8.93;2.35;;;;;;;2.58;89.81;98730.97;8214965;28;20393;-79
2021/12/07 19:21:27;;;;;;;7.32;2.10;;;;;;;2.55;89.49;98725.97;8222495;28;20040;-81
2021/12/07 19:25:29;;;;;;;5.53;2.50;;;;;;;2.55;90.02;98711.53;8210740;28;20046;-80
2021/12/07 19:29:31;;;;;;;6.15;2.30;;;;;;;2.46;90.00;98687.34;8208764;28;20078;-81
2021/12/07 19:33:32;;;;;;;;;;;;;;;2.44;90.03;98686.78;8201025;28;20047;-79
2021/12/07 19:37:34;;;;;;;11.15;2.13;;;;;;;2.42;89.76;98686.16;8195759;28;20178;-79
2021/12/07 19:41:35;;;;;;;3.67;1.25;;;;;;;2.44;89.17;98683.19;8222461;28;20049;-81
2021/12/07 19:45:36;;;;;;;9.07;2.37;;;;;;;2.50;89.27;98685.03;8205136;28;20444;-80
2021/12/07 19:49:38;;;;;;;9.15;2.20;;;;;;;2.55;88.97;98666.13;8229887;28;20288;-81
2021/12/07 19:53:46;;;;;;;6.80;2.08;;;;;;;2.53;88.97;98651.09;8227952;28;20121;-81
2021/12/07 19:57:47;;;;;;;9.48;1.83;;;;;;;2.46;88.56;98632.97;8219209;28;20042;-80
2021/12/07 20:01:48;;;;;;;5.75;2.13;;;;;;;2.44;88.82;98620.66;8224813;28;20039;-80
2021/12/07 20:05:51;;;;;;;7.85;2.40;;;;;;;2.46;88.64;98605.78;8201371;28;20050;-79
2021/12/07 20:09:51;;;;;;;6.60;2.55;;;;;;;2.51;87.67;98597.78;8212265;28;20130;-79
2021/12/07 20:13:53;;;;;;;3.92;1.75;;;;;;;2.54;86.26;98580.19;8220478;28;20050;-82
2021/12/07 20:17:57;;;;;;;5.82;1.85;;;;;;;2.64;86.80;98575.03;8224896;28;20431;-80
2021/12/07 20:21:58;;;;;;;10.05;2.08;;;;;;;2.72;86.91;98558.41;8197180;28;20054;-80
2021/12/07 20:25:59;;;;;;;4.38;2.08;;;;;;;2.74;86.44;98537.25;8213533;28;20123;-80
2021/12/07 20:30:00;;;;;;;3.63;1.98;;;;;;;2.84;85.42;98519.53;8218591;28;20052;-81
2021/12/07 20:34:05;;;;;;;5.93;1.90;;;;;;;2.92;84.80;98505.59;8221391;28;20410;-79
2021/12/07 20:38:05;;;;;;;5.10;1.70;;;;;;;2.94;83.79;98488.00;8223203;28;20062;-80
2021/12/07 20:42:06;;;;;;;7.18;1.88;;;;;;;2.95;81.81;98472.50;8225005;28;20476;-80
2021/12/07 20:46:08;;;;;;;5.20;1.55;;;;;;;3.07;81.65;98448.84;8223678;28;20034;-81
2021/12/07 20:50:10;;;;;;;6.13;2.10;;;;;;;3.10;80.31;98428.50;8212545;28;20077;-81